Angoon, Alaska
Current Conditions -  °F | °C
As of 9:56 AM on Tuesday 21 Oct 2014 (Local Time) from PAGN Reporting Station
Light Rain Light Rain  
Wind Chill: 42°   Ceiling: Unl
Heat Index: 46°   Visibility: 10mi
Dew Point: 39°   Wind: 8mph
Humidity: 76%   Direction: 60°ENE
Pressure: 29.19"   Gusts: NA
Location:  57.5°N, 134.59°W
Report Text: PAGN 211756Z AUTO 06007KT 030V120 10SM -RA CLR 08/04 A2919 RMK AO2 TSNO 56018 60000 T00770038 10077 20066 RAB21 P0000 SLP886 $
Loading
Personal Weather Stations






























Interactive Weather Map New forecast layout! Learn more

10-Day Weather Forecast

Advertisements
Track Severe Weather on mobile